Time;durP1;ratioP1;P1;durP2;ratioP2;P2;SDS_P1;SDS_P2;PMS_P1;PMS_P2;Temp;Humidity;BMP_temperature;BMP_pressure;BME280_temperature;BME280_humidity;BME280_pressure;Samples;Min_cycle;Max_cycle;Signal;HPM_P1;HPM_P2
2021/06/17 00:00:28;;;;;;;8.75;6.32;;;23.10;93.30;;;;;;5031574;28;20075;-87
2021/06/17 00:02:55;;;;;;;8.63;6.20;;;23.10;92.90;;;;;;5032622;28;20033;-87
2021/06/17 00:05:22;;;;;;;7.73;6.07;;;23.00;92.80;;;;;;5032483;28;20429;-87
2021/06/17 00:07:51;;;;;;;7.88;6.82;;;23.00;92.70;;;;;;5050602;28;20481;-87
2021/06/17 00:10:28;;;;;;;9.07;6.93;;;23.00;92.70;;;;;;5031578;28;20036;-87
2021/06/17 00:12:55;;;;;;;8.32;6.18;;;23.00;92.70;;;;;;5032515;28;20121;-86
2021/06/17 00:15:22;;;;;;;7.90;6.25;;;23.00;92.70;;;;;;5032036;28;20482;-88
2021/06/17 00:17:49;;;;;;;9.05;6.70;;;22.90;92.60;;;;;;5034621;28;20025;-87
2021/06/17 00:20:16;;;;;;;7.20;6.30;;;22.90;92.50;;;;;;5053523;28;20105;-87
2021/06/17 00:22:42;;;;;;;8.25;6.28;;;22.90;92.50;;;;;;5036193;28;20112;-86
2021/06/17 00:25:09;;;;;;;7.35;5.60;;;22.90;92.40;;;;;;5035940;28;20532;-86
2021/06/17 00:27:35;;;;;;;8.55;6.47;;;22.90;92.30;;;;;;5036282;28;20025;-87
2021/06/17 00:30:00;;;;;;;8.43;6.38;;;22.90;92.30;;;;;;5035396;28;20055;-88
2021/06/17 00:32:26;;;;;;;7.43;6.18;;;22.90;92.40;;;;;;5053758;28;20036;-86
2021/06/17 00:34:52;;;;;;;9.70;6.40;;;22.90;92.40;;;;;;5035870;28;20029;-87
2021/06/17 00:37:17;;;;;;;7.65;6.10;;;22.80;92.40;;;;;;5035818;28;20662;-87
2021/06/17 00:39:43;;;;;;;8.13;5.75;;;22.80;92.30;;;;;;5053353;28;20453;-87
2021/06/17 00:42:09;;;;;;;7.72;6.00;;;22.80;92.20;;;;;;5035648;28;20112;-87
2021/06/17 00:44:34;;;;;;;7.00;5.88;;;22.80;92.10;;;;;;5053662;28;20025;-87
2021/06/17 00:47:00;;;;;;;7.10;6.05;;;22.90;92.00;;;;;;5035653;28;20032;-86
2021/06/17 00:49:27;;;;;;;7.07;5.90;;;22.90;92.00;;;;;;5035159;28;20124;-87
2021/06/17 00:51:53;;;;;;;7.25;6.07;;;22.90;92.00;;;;;;5035612;28;20029;-87
2021/06/17 00:54:32;;;;;;;6.70;6.00;;;22.90;91.90;;;;;;5053357;28;20035;-87
2021/06/17 00:57:09;;;;;;;8.38;6.20;;;22.90;91.90;;;;;;5035583;28;20021;-87
2021/06/17 00:59:36;;;;;;;6.80;5.95;;;22.90;91.80;;;;;;5034868;28;20021;-87
2021/06/17 01:02:03;;;;;;;6.50;5.85;;;22.90;91.80;;;;;;5035506;28;20021;-87
2021/06/17 01:04:29;;;;;;;7.18;6.10;;;22.90;91.80;;;;;;5035334;28;20029;-87
2021/06/17 01:06:55;;;;;;;9.52;6.07;;;22.90;91.70;;;;;;5035277;28;20489;-88
2021/06/17 01:09:43;;;;;;;8.20;5.68;;;22.90;91.60;;;;;;5034662;28;20033;-87
2021/06/17 01:12:44;;;;;;;8.15;5.82;;;22.90;91.60;;;;;;5052986;28;20028;-88
2021/06/17 01:15:13;;;;;;;6.25;5.15;;;22.90;91.50;;;;;;5021573;28;20037;-87
2021/06/17 01:17:45;;;;;;;6.43;5.68;;;22.90;91.50;;;;;;5035085;28;20025;-88
2021/06/17 01:20:34;;;;;;;6.22;5.50;;;22.90;91.50;;;;;;5034481;28;20127;-87
2021/06/17 01:23:15;;;;;;;6.30;5.30;;;22.90;91.40;;;;;;5053031;28;20021;-87
2021/06/17 01:26:12;;;;;;;6.03;5.43;;;22.90;91.40;;;;;;5034852;28;20032;-87
2021/06/17 01:28:41;;;;;;;6.93;5.75;;;22.90;91.30;;;;;;5034222;28;20427;-87
2021/06/17 01:31:16;;;;;;;7.80;5.57;;;22.90;91.20;;;;;;5033946;28;20029;-88
2021/06/17 01:33:47;;;;;;;7.55;5.18;;;22.90;91.10;;;;;;5034710;28;20623;-87
2021/06/17 01:36:20;;;;;;;6.50;5.35;;;22.90;91.10;;;;;;5034740;28;20025;-86
2021/06/17 01:38:51;;;;;;;9.02;6.00;;;22.90;91.10;;;;;;5034673;28;20021;-89
2021/06/17 01:41:23;;;;;;;6.80;5.28;;;22.90;91.10;;;;;;5034323;28;20848;-88
2021/06/17 01:43:50;;;;;;;7.00;5.43;;;22.90;91.10;;;;;;5034655;28;20083;-87
2021/06/17 01:46:17;;;;;;;6.30;5.40;;;22.90;91.00;;;;;;5033609;28;20025;-87
2021/06/17 01:48:44;;;;;;;6.82;5.10;;;22.90;91.00;;;;;;5034518;28;20119;-87
2021/06/17 01:51:10;;;;;;;8.05;5.45;;;22.90;91.00;;;;;;5051377;28;20033;-87
2021/06/17 01:53:37;;;;;;;6.05;5.20;;;22.90;90.90;;;;;;5034283;28;20028;-87
2021/06/17 01:56:04;;;;;;;7.10;5.30;;;22.90;90.90;;;;;;5052166;28;20177;-87
2021/06/17 01:58:31;;;;;;;7.40;5.47;;;22.90;90.90;;;;;;5052361;28;20104;-87
2021/06/17 02:00:59;;;;;;;7.00;5.40;;;22.90;90.90;;;;;;5033212;28;20060;-87
2021/06/17 02:03:26;;;;;;;5.93;5.25;;;22.90;90.80;;;;;;5034356;28;20021;-87
2021/06/17 02:05:52;;;;;;;6.75;5.45;;;22.90;90.80;;;;;;5033889;28;20120;-87
2021/06/17 02:08:20;;;;;;;6.13;5.05;;;22.90;90.80;;;;;;5034228;28;20450;-87
2021/06/17 02:10:47;;;;;;;7.18;5.28;;;22.90;90.80;;;;;;5033321;28;20477;-86
2021/06/17 02:13:15;;;;;;;7.05;5.00;;;22.90;90.80;;;;;;5033894;28;20025;-87
2021/06/17 02:15:44;;;;;;;5.68;5.05;;;22.90;90.80;;;;;;5051764;28;20392;-87
2021/06/17 02:18:11;;;;;;;6.18;5.18;;;22.80;90.70;;;;;;5034097;28;20347;-87
2021/06/17 02:20:41;;;;;;;6.65;4.90;;;22.80;90.70;;;;;;5033140;28;20033;-87
2021/06/17 02:23:11;;;;;;;5.47;4.80;;;22.80;90.70;;;;;;5033834;28;20052;-87
2021/06/17 02:25:36;;;;;;;8.02;5.40;;;22.80;90.70;;;;;;5033569;28;20059;-87
2021/06/17 02:28:07;;;;;;;6.30;4.93;;;22.80;90.70;;;;;;5033896;28;20477;-86
2021/06/17 02:30:36;;;;;;;6.32;5.07;;;22.80;90.70;;;;;;5032964;28;20074;-86
2021/06/17 02:33:05;;;;;;;7.18;5.30;;;22.80;90.70;;;;;;5051933;28;20029;-87
2021/06/17 02:35:31;;;;;;;5.78;5.15;;;22.80;90.70;;;;;;5033584;28;20055;-88
2021/06/17 02:38:03;;;;;;;6.38;5.25;;;22.70;90.70;;;;;;5033742;28;20017;-87
2021/06/17 02:40:32;;;;;;;7.65;5.00;;;22.70;90.60;;;;;;5032023;28;20017;-87
2021/06/17 02:43:00;;;;;;;5.85;5.10;;;22.80;90.70;;;;;;5033590;28;20094;-87
2021/06/17 02:45:29;;;;;;;6.80;5.00;;;22.70;90.70;;;;;;5051070;28;20512;-87
2021/06/17 02:47:55;;;;;;;5.90;4.72;;;22.70;90.80;;;;;;5033609;28;20500;-86
2021/06/17 02:50:22;;;;;;;5.82;5.15;;;22.70;90.80;;;;;;5032800;28;20021;-86
2021/06/17 02:52:48;;;;;;;8.55;5.28;;;22.70;90.80;;;;;;5032968;28;20040;-87
2021/06/17 02:55:14;;;;;;;6.05;5.05;;;22.70;90.80;;;;;;5032189;28;20021;-88
2021/06/17 02:57:39;;;;;;;5.55;4.95;;;22.70;90.80;;;;;;5051029;28;20025;-87
2021/06/17 03:00:13;;;;;;;6.38;4.90;;;22.60;90.80;;;;;;5032654;28;20059;-87
2021/06/17 03:02:54;;;;;;;6.50;5.30;;;22.60;90.80;;;;;;5033018;28;20036;-87
2021/06/17 03:05:24;;;;;;;7.18;5.10;;;22.60;90.80;;;;;;5032991;28;20108;-87
2021/06/17 03:08:14;;;;;;;8.23;5.78;;;22.60;90.80;;;;;;5051548;28;20116;-89
2021/06/17 03:10:44;;;;;;;7.55;5.60;;;22.50;90.80;;;;;;5026313;28;20406;-87
2021/06/17 03:13:10;;;;;;;8.05;5.68;;;22.50;90.80;;;;;;5031566;28;20104;-88
2021/06/17 03:15:39;;;;;;;6.70;4.95;;;22.50;90.90;;;;;;5030089;28;20049;-84
2021/06/17 03:18:06;;;;;;;;;;;22.50;90.90;;;;;;5033079;28;20025;-84
2021/06/17 03:20:34;;;;;;;7.90;5.25;;;22.50;90.90;;;;;;5030626;28;19931;-86
2021/06/17 03:23:04;;;;;;;5.43;4.60;;;22.50;90.90;;;;;;5031901;28;20021;-84
2021/06/17 03:25:30;;;;;;;6.45;4.85;;;22.50;90.90;;;;;;5031072;28;20435;-84
2021/06/17 03:27:57;;;;;;;7.45;5.18;;;22.50;91.00;;;;;;5033385;28;20074;-84
2021/06/17 03:30:26;;;;;;;10.68;5.30;;;22.50;91.00;;;;;;5029384;28;20466;-86
2021/06/17 03:32:55;;;;;;;8.10;4.78;;;22.50;91.00;;;;;;5029754;28;20079;-86
2021/06/17 03:35:22;;;;;;;6.95;5.38;;;22.50;91.00;;;;;;5030768;28;20041;-87
2021/06/17 03:37:50;;;;;;;6.35;4.93;;;22.50;91.00;;;;;;5029804;28;20037;-87
2021/06/17 03:40:17;;;;;;;5.95;5.00;;;22.50;91.00;;;;;;5028878;28;20018;-86
2021/06/17 03:42:45;;;;;;;7.78;5.50;;;22.50;91.00;;;;;;5029606;28;20029;-86
2021/06/17 03:45:11;;;;;;;6.78;5.20;;;22.40;91.00;;;;;;5030739;28;20097;-87
2021/06/17 03:47:37;;;;;;;6.20;5.05;;;22.40;91.00;;;;;;5029569;28;20040;-86
2021/06/17 03:50:04;;;;;;;7.38;5.28;;;22.40;91.00;;;;;;5028708;28;20105;-86
2021/06/17 03:52:30;;;;;;;6.68;4.93;;;22.40;91.10;;;;;;5032349;28;20112;-86
2021/06/17 03:54:57;;;;;;;8.77;5.55;;;22.40;91.10;;;;;;5033251;28;20037;-86
2021/06/17 03:57:24;;;;;;;7.25;5.65;;;22.40;91.10;;;;;;5033411;28;20425;-86
2021/06/17 03:59:52;;;;;;;8.52;6.15;;;22.40;91.10;;;;;;5032711;28;20028;-86
2021/06/17 04:02:18;;;;;;;6.53;5.40;;;22.40;91.20;;;;;;5034406;28;20116;-86
2021/06/17 04:04:45;;;;;;;8.15;5.43;;;22.40;91.20;;;;;;5034863;28;20029;-86
2021/06/17 04:07:17;;;;;;;9.95;5.55;;;22.40;91.30;;;;;;5033310;28;20442;-86
2021/06/17 04:09:44;;;;;;;7.25;5.38;;;22.40;91.30;;;;;;5032789;28;20040;-86
2021/06/17 04:12:12;;;;;;;9.77;6.40;;;22.30;91.40;;;;;;5033054;28;20374;-86
2021/06/17 04:14:42;;;;;;;9.70;5.63;;;22.40;91.40;;;;;;5034373;28;20021;-86
2021/06/17 04:17:11;;;;;;;10.20;6.00;;;22.30;91.40;;;;;;5034465;28;20449;-86
2021/06/17 04:19:38;;;;;;;6.97;5.25;;;22.40;91.50;;;;;;5034163;28;20029;-86
2021/06/17 04:22:07;;;;;;;6.95;5.13;;;22.40;91.50;;;;;;5033063;28;20121;-86
2021/06/17 04:24:38;;;;;;;6.15;5.10;;;22.40;91.50;;;;;;5034532;28;20021;-87
2021/06/17 04:27:05;;;;;;;7.30;4.65;;;22.40;91.50;;;;;;5033812;28;20075;-88
2021/06/17 04:29:37;;;;;;;5.70;4.60;;;22.40;91.50;;;;;;5033591;28;20025;-88
2021/06/17 04:32:04;;;;;;;7.50;4.72;;;22.40;91.60;;;;;;5033478;28;20117;-84
2021/06/17 04:34:31;;;;;;;5.40;4.53;;;22.40;91.60;;;;;;5035872;28;20124;-85
2021/06/17 04:36:57;;;;;;;5.43;4.32;;;22.50;91.60;;;;;;5035668;28;20370;-85
2021/06/17 04:39:27;;;;;;;5.72;4.30;;;22.50;91.60;;;;;;5035902;28;20018;-84
2021/06/17 04:41:53;;;;;;;7.03;5.10;;;22.50;91.60;;;;;;5033776;28;20025;-85
2021/06/17 04:44:20;;;;;;;8.35;5.03;;;22.50;91.80;;;;;;5032723;28;20021;-86
2021/06/17 04:46:47;;;;;;;6.13;5.05;;;22.50;91.80;;;;;;5033025;28;20030;-85
2021/06/17 04:49:15;;;;;;;7.07;4.57;;;22.60;91.80;;;;;;5034093;28;20363;-85
2021/06/17 04:51:43;;;;;;;5.50;4.20;;;22.60;91.90;;;;;;5033841;28;20028;-86
2021/06/17 04:54:18;;;;;;;7.22;4.70;;;22.60;92.00;;;;;;5032521;28;20033;-85
2021/06/17 04:56:45;;;;;;;6.63;4.90;;;22.60;92.00;;;;;;5034692;28;20047;-85
2021/06/17 04:59:10;;;;;;;7.18;5.10;;;22.60;92.00;;;;;;5032742;28;20453;-86
2021/06/17 05:01:40;;;;;;;8.25;4.90;;;22.60;92.00;;;;;;5032021;28;20049;-87
2021/06/17 05:04:05;;;;;;;5.95;4.90;;;22.70;92.00;;;;;;5031441;28;20452;-87
2021/06/17 05:06:34;;;;;;;5.35;4.57;;;22.70;92.00;;;;;;5033641;28;20104;-87
2021/06/17 05:11:44;;;;;;;7.78;4.60;;;22.70;92.10;;;;;;5033835;28;20083;-87
2021/06/17 05:14:09;;;;;;;6.18;4.75;;;22.80;92.00;;;;;;5031990;28;20033;-87
2021/06/17 05:16:35;;;;;;;6.72;4.57;;;22.80;91.90;;;;;;5031249;28;20032;-87
2021/06/17 05:19:01;;;;;;;6.43;4.70;;;22.90;91.60;;;;;;5031848;28;20024;-87
2021/06/17 05:21:26;;;;;;;8.68;4.70;;;22.90;91.70;;;;;;5031801;28;20585;-88
2021/06/17 05:23:52;;;;;;;7.78;4.57;;;22.90;91.80;;;;;;5033478;28;20424;-87
2021/06/17 05:26:20;;;;;;;5.85;4.30;;;22.90;91.90;;;;;;5031796;28;20083;-87
2021/06/17 05:28:46;;;;;;;7.63;5.07;;;23.00;91.80;;;;;;5031985;28;20037;-88
2021/06/17 05:31:11;;;;;;;9.10;5.07;;;23.00;91.80;;;;;;5030967;28;20022;-87
2021/06/17 05:33:37;;;;;;;8.05;5.05;;;23.00;91.90;;;;;;5031644;28;20099;-88
2021/06/17 05:36:04;;;;;;;6.80;5.00;;;23.10;92.10;;;;;;5031473;28;20095;-89
2021/06/17 05:38:31;;;;;;;7.45;5.60;;;23.10;92.10;;;;;;5029892;28;20111;-88
2021/06/17 05:40:56;;;;;;;8.55;4.78;;;23.10;92.00;;;;;;5031109;28;20105;-86
2021/06/17 05:43:22;;;;;;;6.35;5.13;;;23.10;92.00;;;;;;5032470;28;20033;-86
2021/06/17 05:45:49;;;;;;;8.18;5.07;;;23.20;92.60;;;;;;5031069;28;20446;-85
2021/06/17 05:48:14;;;;;;;7.00;5.30;;;23.20;92.10;;;;;;5031341;28;20029;-85
2021/06/17 05:50:40;;;;;;;7.57;5.30;;;23.20;91.90;;;;;;5032511;28;20506;-84
2021/06/17 05:53:06;;;;;;;6.50;5.03;;;23.30;92.20;;;;;;5033252;28;20531;-85
2021/06/17 05:55:32;;;;;;;7.35;5.00;;;23.30;92.20;;;;;;5033036;28;20048;-85
2021/06/17 05:57:57;;;;;;;7.28;4.82;;;23.30;92.40;;;;;;5032658;28;20536;-88
2021/06/17 06:00:23;;;;;;;6.78;4.70;;;23.40;92.60;;;;;;5031799;28;20018;-87
2021/06/17 06:02:49;;;;;;;9.90;5.65;;;23.40;92.50;;;;;;5032263;28;20056;-87
2021/06/17 06:05:15;;;;;;;9.88;5.22;;;23.50;92.60;;;;;;5030927;28;20037;-87
2021/06/17 06:07:41;;;;;;;7.65;4.45;;;23.50;92.90;;;;;;5030955;28;20487;-88
2021/06/17 06:10:08;;;;;;;6.90;4.65;;;23.60;92.60;;;;;;5030609;28;20033;-88
2021/06/17 06:12:34;;;;;;;7.87;5.07;;;23.60;93.00;;;;;;5032340;28;20032;-88
2021/06/17 06:15:00;;;;;;;8.20;4.75;;;23.60;93.20;;;;;;5030734;28;20047;-90
2021/06/17 06:17:25;;;;;;;5.53;4.20;;;23.70;92.80;;;;;;5031215;28;20022;-88
2021/06/17 06:19:51;;;;;;;7.07;4.65;;;23.70;92.00;;;;;;5030457;28;20112;-88
2021/06/17 06:22:17;;;;;;;6.97;4.25;;;23.70;91.90;;;;;;5030938;28;20029;-88
2021/06/17 06:24:42;;;;;;;6.70;4.72;;;23.80;91.70;;;;;;5031183;28;20052;-88
2021/06/17 06:27:09;;;;;;;6.93;4.32;;;23.80;90.80;;;;;;5030812;28;20052;-88
2021/06/17 06:29:35;;;;;;;6.53;4.18;;;23.80;91.20;;;;;;5029626;28;20053;-88
2021/06/17 06:32:03;;;;;;;7.15;4.45;;;23.80;91.70;;;;;;5030052;28;20056;-89
2021/06/17 06:34:28;;;;;;;7.10;4.57;;;23.90;91.60;;;;;;5031992;28;20108;-87
2021/06/17 06:36:54;;;;;;;6.25;4.75;;;23.80;92.60;;;;;;5030164;28;20068;-87
2021/06/17 06:39:20;;;;;;;7.97;4.82;;;23.80;93.80;;;;;;5030021;28;20493;-87
2021/06/17 06:41:47;;;;;;;8.90;5.25;;;23.80;93.50;;;;;;5030890;28;20498;-88
2021/06/17 06:44:13;;;;;;;8.38;5.63;;;23.70;94.80;;;;;;5030616;28;20040;-87
2021/06/17 06:46:41;;;;;;;6.88;4.70;;;23.70;95.80;;;;;;5030577;28;20021;-90
2021/06/17 06:49:07;;;;;;;7.78;4.45;;;23.70;94.00;;;;;;5030176;28;20045;-89
2021/06/17 06:51:39;;;;;;;6.78;4.65;;;23.70;92.60;;;;;;5030370;28;20029;-86
2021/06/17 06:54:09;;;;;;;7.85;4.63;;;23.80;91.90;;;;;;5031876;28;20151;-86
2021/06/17 06:56:39;;;;;;;8.32;4.20;;;23.90;91.40;;;;;;5030387;28;20017;-86
2021/06/17 06:59:05;;;;;;;8.85;4.70;;;24.00;91.20;;;;;;5031188;28;20032;-86
2021/06/17 07:01:32;;;;;;;7.28;4.78;;;24.10;90.90;;;;;;5029756;28;20026;-86
2021/06/17 07:03:58;;;;;;;8.20;4.95;;;24.20;90.20;;;;;;5031393;28;20021;-86
2021/06/17 07:06:24;;;;;;;6.32;4.80;;;24.20;92.00;;;;;;5031901;28;20033;-87
2021/06/17 07:08:49;;;;;;;5.70;4.45;;;24.20;90.40;;;;;;5030346;28;20057;-87
2021/06/17 07:11:15;;;;;;;6.47;4.35;;;24.20;91.20;;;;;;5030033;28;20037;-88
2021/06/17 07:13:40;;;;;;;5.22;4.32;;;24.20;90.90;;;;;;5031738;28;20036;-86
2021/06/17 07:16:06;;;;;;;6.20;4.53;;;24.20;90.70;;;;;;5030536;28;20454;-85
2021/06/17 07:18:32;;;;;;;7.20;4.78;;;24.30;91.40;;;;;;5029990;28;20104;-88
2021/06/17 07:21:27;;;;;;;7.32;4.63;;;24.20;91.80;;;;;;5027132;28;20830;-91
2021/06/17 07:23:53;;;;;;;8.60;5.43;;;24.20;94.60;;;;;;5001662;28;20552;-87
2021/06/17 07:26:22;;;;;;;7.45;5.28;;;24.10;95.60;;;;;;5030018;28;20021;-88
2021/06/17 07:28:48;;;;;;;6.40;5.05;;;24.10;94.70;;;;;;5027148;28;20022;-85
2021/06/17 07:31:14;;;;;;;6.40;4.53;;;24.00;93.70;;;;;;5030708;28;20026;-86
2021/06/17 07:33:40;;;;;;;7.75;5.30;;;24.10;92.20;;;;;;5034003;28;20099;-87
2021/06/17 07:36:06;;;;;;;7.53;5.07;;;24.10;92.50;;;;;;5029373;28;20426;-89
2021/06/17 07:38:31;;;;;;;8.45;5.47;;;24.20;92.40;;;;;;5034551;28;20045;-87
2021/06/17 07:40:57;;;;;;;8.82;5.03;;;24.20;92.10;;;;;;5036529;28;20029;-86
2021/06/17 07:43:23;;;;;;;9.00;4.85;;;24.30;90.20;;;;;;5036009;28;20444;-91
2021/06/17 07:45:49;;;;;;;7.38;4.60;;;24.30;90.50;;;;;;5031971;28;20037;-89
2021/06/17 07:48:15;;;;;;;7.93;4.70;;;24.40;90.10;;;;;;5032685;28;20029;-87
2021/06/17 07:50:42;;;;;;;7.35;4.88;;;24.40;90.90;;;;;;5029563;28;20443;-88
2021/06/17 07:53:08;;;;;;;6.13;5.35;;;24.40;92.50;;;;;;5032021;28;20083;-87
2021/06/17 07:55:35;;;;;;;6.10;5.50;;;24.40;94.10;;;;;;5030057;28;20092;-88
2021/06/17 07:58:00;;;;;;;11.63;5.75;;;24.30;96.10;;;;;;5031640;28;20429;-88
2021/06/17 08:00:29;;;;;;;8.05;5.47;;;24.20;96.60;;;;;;5029519;28;20372;-87
2021/06/17 08:02:59;;;;;;;7.05;5.70;;;24.20;96.90;;;;;;5030214;28;20041;-88
2021/06/17 08:05:25;;;;;;;8.10;5.43;;;24.10;96.60;;;;;;5029574;28;20426;-88
2021/06/17 08:07:51;;;;;;;8.30;5.43;;;24.00;97.10;;;;;;5031479;28;20039;-87
2021/06/17 08:10:17;;;;;;;6.68;5.10;;;24.00;97.20;;;;;;5031146;28;20061;-87
2021/06/17 08:12:42;;;;;;;6.63;4.72;;;24.00;96.50;;;;;;5033726;28;20052;-88
2021/06/17 08:15:09;;;;;;;8.18;5.53;;;24.00;94.00;;;;;;5031969;28;20030;-87
2021/06/17 08:17:36;;;;;;;7.95;4.85;;;24.00;94.40;;;;;;5033388;28;20105;-88
2021/06/17 08:20:03;;;;;;;8.23;5.32;;;24.00;93.40;;;;;;5043890;28;20326;-88
2021/06/17 08:22:28;;;;;;;7.10;4.90;;;24.10;93.80;;;;;;5041444;28;20021;-88
2021/06/17 08:24:55;;;;;;;9.65;5.10;;;24.20;91.60;;;;;;5044025;28;20030;-88
2021/06/17 08:27:21;;;;;;;7.57;4.70;;;24.30;91.90;;;;;;5030594;28;20056;-88
2021/06/17 08:29:47;;;;;;;6.47;5.20;;;24.30;93.70;;;;;;5030281;28;20042;-88
2021/06/17 08:32:13;;;;;;;6.70;5.22;;;24.30;94.80;;;;;;5031862;28;20052;-87
2021/06/17 08:34:38;;;;;;;8.35;5.18;;;24.20;95.50;;;;;;5029524;28;20029;-88
2021/06/17 08:37:05;;;;;;;6.45;4.47;;;24.30;93.30;;;;;;5032474;28;20462;-87
2021/06/17 08:39:31;;;;;;;6.72;4.28;;;24.40;91.00;;;;;;5036515;28;20052;-87
2021/06/17 08:41:57;;;;;;;8.65;4.78;;;24.60;90.60;;;;;;5036141;28;20485;-87
2021/06/17 08:44:23;;;;;;;7.18;3.92;;;24.70;91.80;;;;;;5038777;28;20132;-87
2021/06/17 08:46:51;;;;;;;6.15;4.20;;;24.80;90.80;;;;;;5038186;28;20029;-87
2021/06/17 08:49:18;;;;;;;6.93;3.93;;;24.90;85.60;;;;;;5038080;28;20120;-87
2021/06/17 08:51:47;;;;;;;6.88;4.30;;;25.10;84.50;;;;;;5037325;28;20025;-87
2021/06/17 08:54:17;;;;;;;;;;;25.30;81.40;;;;;;5039289;28;20033;-87
2021/06/17 08:56:43;;;;;;;9.75;5.00;;;25.40;80.20;;;;;;5038262;28;19920;-87
2021/06/17 08:59:09;;;;;;;5.90;4.15;;;25.60;80.40;;;;;;5043811;28;20029;-87
2021/06/17 09:01:35;;;;;;;7.88;4.03;;;25.60;79.40;;;;;;5037380;28;20018;-87
2021/06/17 09:04:17;;;;;;;4.97;3.88;;;25.80;78.80;;;;;;5036751;28;20132;-87
2021/06/17 09:07:00;;;;;;;7.82;4.28;;;25.80;78.80;;;;;;5039562;28;20026;-87
2021/06/17 09:09:37;;;;;;;7.30;3.80;;;26.00;77.40;;;;;;5037716;28;20029;-87
2021/06/17 09:12:04;;;;;;;7.43;4.28;;;26.20;77.90;;;;;;5039342;28;20018;-88
2021/06/17 09:14:30;;;;;;;5.72;3.75;;;26.10;77.40;;;;;;5037679;28;20029;-87
2021/06/17 09:17:03;;;;;;;4.40;3.80;;;26.10;77.70;;;;;;5035434;28;20482;-88
2021/06/17 09:19:41;;;;;;;9.43;4.55;;;26.10;80.00;;;;;;5037153;28;20026;-87
2021/06/17 09:22:09;;;;;;;7.32;4.38;;;26.00;79.60;;;;;;5035422;28;20060;-87
2021/06/17 09:24:36;;;;;;;5.47;4.43;;;26.00;80.10;;;;;;5037968;28;20064;-87
2021/06/17 09:27:32;;;;;;;6.90;4.55;;;26.10;77.70;;;;;;5037053;28;20112;-87
2021/06/17 09:30:10;;;;;;;8.93;5.15;;;26.10;77.70;;;;;;5038535;28;20474;-86
2021/06/17 09:32:37;;;;;;;6.57;4.72;;;26.20;77.30;;;;;;5036717;28;20301;-87
2021/06/17 09:35:18;;;;;;;6.93;4.47;;;26.20;78.10;;;;;;5036195;28;20120;-87
2021/06/17 09:37:44;;;;;;;5.75;3.90;;;26.20;77.10;;;;;;5035859;28;20391;-88
2021/06/17 09:40:22;;;;;;;6.28;3.95;;;26.20;77.20;;;;;;5036375;28;20018;-88
2021/06/17 09:42:49;;;;;;;6.38;4.28;;;26.30;77.20;;;;;;5040004;28;20025;-87
2021/06/17 09:45:22;;;;;;;6.35;4.38;;;26.40;76.80;;;;;;5038791;28;20069;-87
2021/06/17 09:47:48;;;;;;;6.65;4.28;;;26.30;77.30;;;;;;5050426;28;20021;-86
2021/06/17 09:50:22;;;;;;;6.07;3.95;;;26.30;76.80;;;;;;5045295;28;20029;-86
2021/06/17 09:52:48;;;;;;;6.00;4.70;;;26.40;75.90;;;;;;5051543;28;20097;-87
2021/06/17 09:55:35;;;;;;;5.57;3.75;;;26.40;76.90;;;;;;5047979;28;20120;-87
2021/06/17 09:58:00;;;;;;;5.63;3.47;;;26.30;77.00;;;;;;5048513;28;20037;-87
2021/06/17 10:00:26;;;;;;;5.50;4.10;;;26.40;76.70;;;;;;5045291;28;20033;-87
2021/06/17 10:02:52;;;;;;;5.43;4.30;;;26.40;76.50;;;;;;5041558;28;20033;-88
2021/06/17 10:05:21;;;;;;;7.40;4.10;;;26.30;78.30;;;;;;5046793;28;20036;-86
2021/06/17 10:07:49;;;;;;;6.97;4.20;;;26.20;78.30;;;;;;5046287;28;20034;-87
2021/06/17 10:10:17;;;;;;;5.90;4.60;;;26.20;77.70;;;;;;5047004;28;20108;-87
2021/06/17 10:12:43;;;;;;;7.00;4.53;;;26.20;78.50;;;;;;5047272;28;20025;-87
2021/06/17 10:15:09;;;;;;;5.47;4.63;;;26.10;79.40;;;;;;5048056;28;20121;-87
2021/06/17 10:17:35;;;;;;;7.53;4.65;;;26.20;79.10;;;;;;5046911;28;20033;-87
2021/06/17 10:20:09;;;;;;;6.80;4.35;;;26.10;79.20;;;;;;5047309;28;20121;-87
2021/06/17 10:22:37;;;;;;;5.97;4.75;;;26.00;81.00;;;;;;5047374;28;20077;-87
2021/06/17 10:25:05;;;;;;;6.97;4.70;;;25.90;82.00;;;;;;5049385;28;20112;-87
2021/06/17 10:27:40;;;;;;;;;;;25.90;82.20;;;;;;5046596;28;20029;-88
2021/06/17 10:30:08;;;;;;;6.00;4.60;;;25.90;81.40;;;;;;5040830;28;20251;-87
2021/06/17 10:32:43;;;;;;;5.80;4.38;;;25.80;82.40;;;;;;5050673;28;20044;-87
2021/06/17 10:35:09;;;;;;;7.82;4.63;;;25.80;82.80;;;;;;5052101;28;20029;-88
2021/06/17 10:37:49;;;;;;;6.47;4.13;;;25.70;82.70;;;;;;5051882;28;20094;-87
2021/06/17 10:40:19;;;;;;;7.28;5.13;;;25.80;80.90;;;;;;5051455;28;20022;-87
2021/06/17 10:42:46;;;;;;;5.90;4.60;;;25.90;80.70;;;;;;5050449;28;20014;-87
2021/06/17 10:45:33;;;;;;;7.20;4.63;;;25.90;82.10;;;;;;5050777;28;20052;-88
2021/06/17 10:48:09;;;;;;;6.88;4.43;;;25.80;82.10;;;;;;5038802;28;20228;-87
2021/06/17 10:51:05;;;;;;;6.63;4.25;;;25.80;82.40;;;;;;5042382;28;20033;-88
2021/06/17 10:53:43;;;;;;;7.10;4.97;;;25.80;82.80;;;;;;5030483;28;20041;-87
2021/06/17 10:56:26;;;;;;;6.13;4.82;;;25.80;83.30;;;;;;5037968;28;20032;-88
2021/06/17 10:58:54;;;;;;;6.07;4.65;;;25.80;83.60;;;;;;5037857;28;20025;-88
2021/06/17 11:01:42;;;;;;;7.32;4.70;;;25.80;83.40;;;;;;5028332;28;20137;-88
2021/06/17 11:04:12;;;;;;;7.68;4.78;;;25.80;84.70;;;;;;5037137;28;20033;-88
2021/06/17 11:06:55;;;;;;;6.40;5.00;;;25.80;84.50;;;;;;5053309;28;20033;-87
2021/06/17 11:09:47;;;;;;;7.45;5.13;;;25.80;84.80;;;;;;5051281;28;20017;-88
2021/06/17 11:12:19;;;;;;;7.75;4.88;;;25.80;84.90;;;;;;5051466;28;20111;-87
2021/06/17 11:14:57;;;;;;;7.22;4.80;;;25.70;84.90;;;;;;5050964;28;20017;-88
2021/06/17 11:17:26;;;;;;;;;;;25.70;85.30;;;;;;5051597;28;20032;-87
2021/06/17 11:20:02;;;;;;;5.50;4.57;;;25.60;85.20;;;;;;5050142;28;19900;-87
2021/06/17 11:22:49;;;;;;;7.18;4.63;;;25.60;85.50;;;;;;5046158;28;20340;-87
2021/06/17 11:25:17;;;;;;;5.72;4.60;;;25.70;84.20;;;;;;5033810;28;20128;-88
2021/06/17 11:27:58;;;;;;;;;;;25.70;84.20;;;;;;5035022;28;20021;-88
2021/06/17 11:30:53;;;;;;;11.38;4.60;;;25.80;84.20;;;;;;5032694;28;20423;-87
2021/06/17 11:33:25;;;;;;;7.38;4.30;;;26.00;79.60;;;;;;5027588;28;20068;-87
2021/06/17 11:36:10;;;;;;;5.90;4.30;;;26.30;78.80;;;;;;5034800;28;20451;-88
2021/06/17 11:38:38;;;;;;;8.98;4.35;;;26.50;78.50;;;;;;5036453;28;20343;-88
2021/06/17 11:41:16;;;;;;;6.93;3.97;;;26.50;79.20;;;;;;5036040;28;20021;-88
2021/06/17 11:43:42;;;;;;;8.85;5.05;;;26.40;80.00;;;;;;5035155;28;20031;-88
2021/06/17 11:46:19;;;;;;;6.65;5.00;;;26.40;79.60;;;;;;5042405;28;20010;-87
2021/06/17 11:49:09;;;;;;;6.18;4.28;;;26.60;78.60;;;;;;5051167;28;20044;-87
2021/06/17 11:51:54;;;;;;;7.57;4.53;;;26.80;77.00;;;;;;5047004;28;20026;-87
2021/06/17 11:54:25;;;;;;;6.45;4.70;;;27.00;76.80;;;;;;5048444;28;20040;-87
2021/06/17 11:56:57;;;;;;;7.32;4.55;;;27.00;77.40;;;;;;5046902;28;20025;-87
2021/06/17 11:59:26;;;;;;;6.95;4.40;;;26.90;77.20;;;;;;5046695;28;20045;-87
2021/06/17 12:02:20;;;;;;;7.45;4.93;;;26.90;77.30;;;;;;5036636;28;20033;-90
2021/06/17 12:05:04;;;;;;;6.72;4.10;;;26.80;79.80;;;;;;5034418;28;20032;-87
2021/06/17 12:07:37;;;;;;;8.15;4.30;;;26.70;82.00;;;;;;5033207;28;20048;-88
2021/06/17 12:10:10;;;;;;;5.88;4.13;;;26.70;80.40;;;;;;5033926;28;20021;-87
2021/06/17 12:12:40;;;;;;;6.38;4.40;;;26.80;78.30;;;;;;5030822;28;20336;-87
2021/06/17 12:15:08;;;;;;;8.23;4.60;;;26.90;77.30;;;;;;5033921;28;20469;-88
2021/06/17 12:17:42;;;;;;;7.68;4.80;;;27.10;76.40;;;;;;5035139;28;20017;-87
2021/06/17 12:20:14;;;;;;;8.23;4.50;;;27.40;74.00;;;;;;5032618;28;20032;-87
2021/06/17 12:22:41;;;;;;;7.78;4.82;;;27.50;74.80;;;;;;5033058;28;20049;-87
2021/06/17 12:25:09;;;;;;;9.55;4.72;;;27.50;74.50;;;;;;5034392;28;20021;-87
2021/06/17 12:27:39;;;;;;;8.02;4.47;;;27.60;74.80;;;;;;5033135;28;20203;-87
2021/06/17 12:30:23;;;;;;;5.10;4.15;;;27.80;71.80;;;;;;5031643;28;20025;-88
2021/06/17 12:32:49;;;;;;;8.85;4.75;;;28.20;69.20;;;;;;5032996;28;20032;-88
2021/06/17 12:35:16;;;;;;;6.10;4.63;;;28.60;68.90;;;;;;5033292;28;20033;-85
2021/06/17 12:37:51;;;;;;;7.68;4.47;;;28.60;69.00;;;;;;5032474;28;20026;-85
2021/06/17 12:40:46;;;;;;;6.50;4.60;;;28.60;69.70;;;;;;5032043;28;20100;-85
2021/06/17 12:43:14;;;;;;;9.05;4.72;;;28.60;70.50;;;;;;5016564;28;20134;-87
2021/06/17 12:45:41;;;;;;;9.18;4.70;;;29.00;69.70;;;;;;5032113;28;20048;-88
2021/06/17 12:49:16;;;;;;;7.78;4.88;;;29.20;69.30;;;;;;5032749;28;20504;-87
2021/06/17 12:54:02;;;;;;;6.15;5.35;;;29.70;67.00;;;;;;5054101;28;20126;-85
2021/06/17 12:56:28;;;;;;;7.60;5.10;;;29.70;67.10;;;;;;5053786;28;20025;-85
2021/06/17 12:58:54;;;;;;;7.40;4.47;;;29.80;65.70;;;;;;5053275;28;20486;-86
2021/06/17 13:01:24;;;;;;;5.80;5.20;;;29.90;65.70;;;;;;5053309;28;20044;-85
2021/06/17 13:03:52;;;;;;;8.13;5.10;;;30.00;65.30;;;;;;5054193;28;20025;-85
2021/06/17 13:06:38;;;;;;;7.15;5.10;;;30.10;65.60;;;;;;5053876;28;20470;-85